createdAt,value
2023-02-04T00:00:29.595Z,102207.47
2023-02-04T00:02:59.540Z,102200.25
2023-02-04T00:05:27.738Z,102222.97
2023-02-04T00:07:55.760Z,102223.94
2023-02-04T00:10:23.741Z,102213.56
2023-02-04T00:12:51.679Z,102207.47
2023-02-04T00:15:19.798Z,102219.94
2023-02-04T00:17:47.812Z,102219.63
2023-02-04T00:20:18.733Z,102217.16
2023-02-04T00:22:46.855Z,102222.19
2023-02-04T00:25:14.909Z,102225.78
2023-02-04T00:27:43.031Z,102213.81
2023-02-04T00:30:12.933Z,102212.34
2023-02-04T00:32:42.129Z,102219.97
2023-02-04T00:35:10.181Z,102228.63
2023-02-04T00:37:39.607Z,102231.50
2023-02-04T00:40:08.673Z,102254.50
2023-02-04T00:42:36.571Z,102261.09
2023-02-04T00:45:04.824Z,102259.81
2023-02-04T00:47:32.866Z,102257.66
2023-02-04T00:50:01.006Z,102247.00
2023-02-04T00:52:29.172Z,102242.22
2023-02-04T00:54:58.733Z,102237.63
2023-02-04T00:57:26.742Z,102238.03
2023-02-04T00:59:54.810Z,102258.97
2023-02-04T01:02:23.035Z,102267.19
2023-02-04T01:04:51.247Z,102249.28
2023-02-04T01:07:19.781Z,102263.50
2023-02-04T01:09:47.928Z,102275.56
2023-02-04T01:12:17.231Z,102278.69
2023-02-04T01:14:45.313Z,102279.50
2023-02-04T01:17:13.279Z,102272.59
2023-02-04T01:19:41.260Z,102262.47
2023-02-04T01:22:09.317Z,102272.75
2023-02-04T01:24:37.332Z,102270.59
2023-02-04T01:27:25.442Z,102283.13
2023-02-04T01:29:53.475Z,102281.34
2023-02-04T01:32:21.462Z,102271.78
2023-02-04T01:34:49.603Z,102275.91
2023-02-04T01:37:19.010Z,102282.22
2023-02-04T01:39:47.111Z,102291.44
2023-02-04T01:42:15.205Z,102292.88
2023-02-04T01:44:44.898Z,102295.00
2023-02-04T01:47:13.272Z,102303.59
2023-02-04T01:49:41.537Z,102308.66
2023-02-04T01:52:11.537Z,102298.38
2023-02-04T01:54:39.725Z,102306.56
2023-02-04T01:57:14.634Z,102299.88
2023-02-04T01:59:44.861Z,102294.78
2023-02-04T02:02:39.119Z,102284.63
2023-02-04T02:05:08.321Z,102275.97
2023-02-04T02:07:36.425Z,102270.53
2023-02-04T02:10:06.227Z,102256.47
2023-02-04T02:12:34.245Z,102254.13
2023-02-04T02:15:04.038Z,102232.72
2023-02-04T02:17:33.487Z,102260.03
2023-02-04T02:20:01.533Z,102280.63
2023-02-04T02:22:34.508Z,102274.47
2023-02-04T02:25:10.275Z,102294.63
2023-02-04T02:27:38.344Z,102293.25
2023-02-04T02:30:07.645Z,102281.00
2023-02-04T02:32:37.377Z,102278.69
2023-02-04T02:35:06.571Z,102267.47
2023-02-04T02:37:34.637Z,102280.69
2023-02-04T02:40:04.823Z,102295.63
2023-02-04T02:42:33.912Z,102285.09
2023-02-04T02:45:08.224Z,102266.44
2023-02-04T02:47:36.254Z,102277.53
2023-02-04T02:50:04.337Z,102283.97
2023-02-04T02:52:32.328Z,102283.59
2023-02-04T02:55:00.404Z,102282.84
2023-02-04T02:57:30.005Z,102291.28
2023-02-04T02:59:57.945Z,102280.59
2023-02-04T03:02:26.516Z,102287.03
2023-02-04T03:05:00.871Z,102277.28
2023-02-04T03:07:31.263Z,102267.72
2023-02-04T03:09:59.664Z,102269.41
2023-02-04T03:12:29.541Z,102271.31
2023-02-04T03:14:57.671Z,102283.81
2023-02-04T03:17:25.819Z,102304.69
2023-02-04T03:19:53.840Z,102295.69
2023-02-04T03:22:21.965Z,102312.53
2023-02-04T03:24:51.398Z,102314.47
2023-02-04T03:27:20.788Z,102311.97
2023-02-04T03:29:50.215Z,102306.09
2023-02-04T03:32:18.683Z,102309.69
2023-02-04T03:34:46.739Z,102293.44
2023-02-04T03:37:14.688Z,102301.63
2023-02-04T03:39:42.678Z,102328.44
2023-02-04T03:42:10.574Z,102328.22
2023-02-04T03:44:38.732Z,102320.47
2023-02-04T03:47:08.341Z,102324.16
2023-02-04T03:49:36.500Z,102329.16
2023-02-04T03:52:05.219Z,102313.28
2023-02-04T03:54:33.248Z,102324.84
2023-02-04T03:57:01.232Z,102309.16
2023-02-04T03:59:29.506Z,102325.13
2023-02-04T04:01:57.632Z,102320.13
2023-02-04T04:04:27.398Z,102317.69
2023-02-04T04:06:55.532Z,102321.81
2023-02-04T04:09:23.643Z,102315.16
2023-02-04T04:11:51.715Z,102312.47
2023-02-04T04:14:19.674Z,102321.53
2023-02-04T04:16:47.652Z,102319.78
2023-02-04T04:19:15.646Z,102318.19
2023-02-04T04:21:45.093Z,102309.69
2023-02-04T04:24:13.117Z,102305.50
2023-02-04T04:26:41.155Z,102303.81
2023-02-04T04:29:09.261Z,102284.25
2023-02-04T04:31:37.324Z,102273.50
2023-02-04T04:34:05.406Z,102252.19
2023-02-04T04:36:33.461Z,102245.13
2023-02-04T04:39:03.074Z,102228.09
2023-02-04T04:41:31.034Z,102219.75
2023-02-04T04:43:59.327Z,102197.34
2023-02-04T04:46:27.305Z,102226.16
2023-02-04T04:48:55.355Z,102218.78
2023-02-04T04:51:23.417Z,102220.00
2023-02-04T04:53:52.091Z,102206.63
2023-02-04T04:56:21.429Z,102191.78
2023-02-04T04:58:49.457Z,102196.34
2023-02-04T05:01:17.582Z,102201.25
2023-02-04T05:03:45.547Z,102194.00
2023-02-04T05:06:13.505Z,102194.31
2023-02-04T05:08:42.674Z,102182.50
2023-02-04T05:11:11.694Z,102176.31
2023-02-04T05:13:41.329Z,102173.91
2023-02-04T05:16:12.201Z,102171.09
2023-02-04T05:18:40.913Z,102169.41
2023-02-04T05:21:09.163Z,102157.56
2023-02-04T05:23:37.100Z,102159.28
2023-02-04T05:26:05.174Z,102156.63
2023-02-04T05:28:33.024Z,102153.94
2023-02-04T05:31:02.533Z,102162.22
2023-02-04T05:33:30.503Z,102161.25
2023-02-04T05:35:58.514Z,102166.09
2023-02-04T05:38:26.387Z,102163.06
2023-02-04T05:40:54.312Z,102176.56
2023-02-04T05:43:22.251Z,102185.75
2023-02-04T05:45:50.137Z,102182.38
2023-02-04T05:48:19.657Z,102189.72
2023-02-04T05:50:47.560Z,102194.09
2023-02-04T05:53:15.511Z,102199.78
2023-02-04T05:55:43.543Z,102212.72
2023-02-04T05:58:11.515Z,102219.84
2023-02-04T06:00:39.360Z,102215.78
2023-02-04T06:03:07.558Z,102222.84
2023-02-04T06:05:37.121Z,102220.91
2023-02-04T06:08:05.466Z,102227.53
2023-02-04T06:10:33.833Z,102227.50
2023-02-04T06:13:01.835Z,102232.38
2023-02-04T06:15:30.189Z,102231.41
2023-02-04T06:17:58.560Z,102232.47
2023-02-04T06:20:26.580Z,102228.84
2023-02-04T06:22:55.972Z,102232.78
2023-02-04T06:25:24.468Z,102232.09
2023-02-04T06:27:52.636Z,102245.56
2023-02-04T06:30:20.953Z,102249.22
2023-02-04T06:32:48.933Z,102256.44
2023-02-04T06:35:16.869Z,102248.47
2023-02-04T06:37:45.187Z,102249.22
2023-02-04T06:40:14.947Z,102245.59
2023-02-04T06:42:42.906Z,102247.63
2023-02-04T06:45:11.333Z,102238.53
2023-02-04T06:47:39.284Z,102240.19
2023-02-04T06:50:07.790Z,102238.34
2023-02-04T06:52:35.792Z,102240.09
2023-02-04T06:55:03.879Z,102249.50
2023-02-04T06:57:33.202Z,102252.34
2023-02-04T07:00:01.118Z,102254.03
2023-02-04T07:02:29.125Z,102256.53
2023-02-04T07:04:57.268Z,102282.00
2023-02-04T07:07:25.258Z,102285.34
2023-02-04T07:09:53.309Z,102297.00
2023-02-04T07:12:21.292Z,102303.34
2023-02-04T07:14:50.916Z,102303.41
2023-02-04T07:17:18.823Z,102313.50
2023-02-04T07:19:46.847Z,102318.66
2023-02-04T07:22:14.743Z,102326.63
2023-02-04T07:24:42.739Z,102333.78
2023-02-04T07:27:10.738Z,102343.66
2023-02-04T07:29:38.778Z,102341.03
2023-02-04T07:32:08.343Z,102351.03
2023-02-04T07:34:36.437Z,102348.34
2023-02-04T07:37:04.472Z,102357.84
2023-02-04T07:39:32.552Z,102379.34
2023-02-04T07:42:00.507Z,102388.59
2023-02-04T07:44:35.344Z,102398.38
2023-02-04T07:47:03.412Z,102401.94
2023-02-04T07:49:32.891Z,102450.28
2023-02-04T07:52:00.807Z,102454.81
2023-02-04T07:54:28.826Z,102458.19
2023-02-04T07:56:56.756Z,102471.59
2023-02-04T07:59:24.679Z,102466.25
2023-02-04T08:01:52.751Z,102484.28
2023-02-04T08:04:20.783Z,102478.66
2023-02-04T08:06:50.179Z,102486.63
2023-02-04T08:09:18.180Z,102490.22
2023-02-04T08:11:46.427Z,102497.41
2023-02-04T08:14:14.607Z,102509.78
2023-02-04T08:16:42.551Z,102513.13
2023-02-04T08:19:10.483Z,102521.91
2023-02-04T08:21:38.415Z,102527.53
2023-02-04T08:24:07.992Z,102529.31
2023-02-04T08:26:36.019Z,102534.69
2023-02-04T08:29:03.912Z,102540.28
2023-02-04T08:31:31.880Z,102543.88
2023-02-04T08:33:59.942Z,102550.19
2023-02-04T08:36:27.850Z,102545.72
2023-02-04T08:38:56.397Z,102553.63
2023-02-04T08:41:26.342Z,102555.44
2023-02-04T08:43:54.459Z,102559.06
2023-02-04T08:46:22.385Z,102563.47
2023-02-04T08:48:52.916Z,102567.78
2023-02-04T08:51:21.306Z,102575.63
2023-02-04T08:53:51.776Z,102583.81
2023-02-04T08:56:20.710Z,102576.97
2023-02-04T08:58:51.370Z,102593.50
2023-02-04T09:01:20.065Z,102587.34
2023-02-04T09:03:48.820Z,102587.34
2023-02-04T09:06:17.102Z,102591.84
2023-02-04T09:08:45.423Z,102591.75
2023-02-04T09:11:15.041Z,102590.69
2023-02-04T09:13:43.413Z,102603.28
2023-02-04T09:16:14.967Z,102608.38
2023-02-04T09:18:46.517Z,102601.16
2023-02-04T09:21:14.800Z,102586.59
2023-02-04T09:23:43.244Z,102587.19
2023-02-04T09:26:11.197Z,102596.13
2023-02-04T09:28:39.633Z,102605.97
2023-02-04T09:31:07.653Z,102608.88
2023-02-04T09:33:37.366Z,102599.31
2023-02-04T09:36:06.224Z,102619.13
2023-02-04T09:38:34.294Z,102633.63
2023-02-04T09:41:04.503Z,102630.25
2023-02-04T09:43:35.718Z,102635.84
2023-02-04T09:46:04.519Z,102650.38
2023-02-04T09:48:32.506Z,102651.53
2023-02-04T09:51:09.376Z,102660.72
2023-02-04T09:53:38.036Z,102657.09
2023-02-04T09:56:06.936Z,102660.59
2023-02-04T09:58:36.422Z,102666.84
2023-02-04T10:01:13.975Z,102675.97
2023-02-04T10:03:46.750Z,102676.59
2023-02-04T10:06:18.072Z,102689.97
2023-02-04T10:08:47.882Z,102694.22
2023-02-04T10:11:19.657Z,102700.63
2023-02-04T10:13:50.489Z,102687.72
2023-02-04T10:16:21.499Z,102695.88
2023-02-04T10:18:49.644Z,102692.19
2023-02-04T10:21:21.998Z,102690.22
2023-02-04T10:23:52.966Z,102695.78
2023-02-04T10:26:22.701Z,102698.53
2023-02-04T10:28:50.600Z,102710.97
2023-02-04T10:31:34.277Z,102710.22
2023-02-04T10:34:07.500Z,102713.59
2023-02-04T10:36:37.222Z,102724.44
2023-02-04T10:39:08.379Z,102722.38
2023-02-04T10:41:38.765Z,102727.00
2023-02-04T10:44:08.311Z,102725.78
2023-02-04T10:46:36.201Z,102740.00
2023-02-04T10:49:05.888Z,102729.81
2023-02-04T10:51:34.586Z,102724.88
2023-02-04T10:54:17.896Z,102744.00
2023-02-04T10:56:45.846Z,102739.47
2023-02-04T10:59:26.715Z,102750.28
2023-02-04T11:01:56.066Z,102742.25
2023-02-04T11:04:24.357Z,102743.09
2023-02-04T11:06:52.842Z,102746.06
2023-02-04T11:09:22.704Z,102746.50
2023-02-04T11:11:52.270Z,102733.09
2023-02-04T11:14:28.223Z,102748.69
2023-02-04T11:17:00.758Z,102736.09
2023-02-04T11:19:35.745Z,102728.69
2023-02-04T11:22:23.828Z,102732.91
2023-02-04T11:24:53.397Z,102733.81
2023-02-04T11:27:24.660Z,102790.38
2023-02-04T11:29:53.618Z,102795.22
2023-02-04T11:32:35.149Z,102794.22
2023-02-04T11:35:23.996Z,102801.28
2023-02-04T11:37:51.925Z,102809.63
2023-02-04T11:40:29.104Z,102814.06
2023-02-04T11:43:02.824Z,102812.09
2023-02-04T11:45:34.369Z,102838.94
2023-02-04T11:48:05.609Z,102840.69
2023-02-04T11:50:35.499Z,102844.94
2023-02-04T11:53:03.891Z,102866.97
2023-02-04T11:55:37.542Z,102885.22
2023-02-04T11:58:07.381Z,102887.19
2023-02-04T12:00:35.366Z,102894.00
2023-02-04T12:03:20.889Z,102894.47
2023-02-04T12:05:49.702Z,102889.78
2023-02-04T12:08:28.732Z,102877.41
2023-02-04T12:11:08.478Z,102887.31
2023-02-04T12:13:49.515Z,102893.34
2023-02-04T12:16:17.818Z,102897.00
2023-02-04T12:18:46.299Z,102891.44
2023-02-04T12:21:15.101Z,102902.28
2023-02-04T12:23:43.529Z,102897.84
2023-02-04T12:26:13.134Z,102901.81
2023-02-04T12:28:41.214Z,102903.84
2023-02-04T12:31:09.434Z,102908.94
2023-02-04T12:33:37.568Z,102907.00
2023-02-04T12:36:06.182Z,102910.09
2023-02-04T12:38:34.212Z,102936.00
2023-02-04T12:41:02.204Z,102944.06
2023-02-04T12:43:31.633Z,102962.63
2023-02-04T12:45:59.653Z,102959.06
2023-02-04T12:48:27.606Z,102962.75
2023-02-04T12:50:55.614Z,102962.75
2023-02-04T12:53:23.718Z,102977.56
2023-02-04T12:55:51.646Z,102979.97
2023-02-04T12:58:19.586Z,102980.50
2023-02-04T13:00:48.980Z,102980.97
2023-02-04T13:03:17.681Z,102995.91
2023-02-04T13:05:45.686Z,103005.25
2023-02-04T13:08:13.579Z,103030.63
2023-02-04T13:10:41.579Z,103051.06
2023-02-04T13:13:09.569Z,103063.13
2023-02-04T13:15:37.641Z,103078.09
2023-02-04T13:18:08.278Z,103083.25
2023-02-04T13:20:36.291Z,103076.16
2023-02-04T13:23:04.400Z,103081.31
2023-02-04T13:25:32.762Z,103083.25
2023-02-04T13:28:00.939Z,103082.00
2023-02-04T13:30:28.977Z,103079.31
2023-02-04T13:32:56.994Z,103088.81
2023-02-04T13:35:26.540Z,103096.03
2023-02-04T13:37:56.452Z,103114.13
2023-02-04T13:40:24.515Z,103126.88
2023-02-04T13:42:52.501Z,103136.34
2023-02-04T13:45:20.776Z,103140.09
2023-02-04T13:47:49.033Z,103151.69
2023-02-04T13:50:17.650Z,103150.41
2023-02-04T13:52:47.029Z,103166.84
2023-02-04T13:55:15.324Z,103167.34
2023-02-04T13:57:43.511Z,103210.50
2023-02-04T14:00:12.971Z,103229.94
2023-02-04T14:02:41.124Z,103252.69
2023-02-04T14:05:09.234Z,103256.41
2023-02-04T14:07:37.093Z,103279.13
2023-02-04T14:10:07.454Z,103283.94
2023-02-04T14:12:35.605Z,103283.56
2023-02-04T14:15:03.580Z,103287.06
2023-02-04T14:17:31.616Z,103293.09
2023-02-04T14:19:59.702Z,103300.59
2023-02-04T14:22:27.671Z,103303.06
2023-02-04T14:24:55.474Z,103305.88
2023-02-04T14:27:24.743Z,103296.19
2023-02-04T14:29:52.738Z,103294.41
2023-02-04T14:32:21.931Z,103290.31
2023-02-04T14:34:50.044Z,103291.69
2023-02-04T14:37:18.115Z,103281.00
2023-02-04T14:39:46.044Z,103272.06
2023-02-04T14:42:14.044Z,103281.03
2023-02-04T14:44:43.366Z,103269.19
2023-02-04T14:47:11.440Z,103274.66
2023-02-04T14:49:39.700Z,103275.56
2023-02-04T14:52:09.668Z,103272.06
2023-02-04T14:54:38.616Z,103272.13
2023-02-04T14:57:06.736Z,103279.22
2023-02-04T14:59:34.943Z,103285.25
2023-02-04T15:02:04.333Z,103289.88
2023-02-04T15:04:32.604Z,103296.25
2023-02-04T15:07:00.691Z,103299.13
2023-02-04T15:09:28.686Z,103295.63
2023-02-04T15:11:56.855Z,103297.28
2023-02-04T15:14:24.813Z,103306.13
2023-02-04T15:16:52.931Z,103302.56
2023-02-04T15:19:23.735Z,103310.66
2023-02-04T15:21:52.109Z,103308.06
2023-02-04T15:24:20.022Z,103322.41
2023-02-04T15:26:47.999Z,103320.81
2023-02-04T15:29:15.838Z,103315.34
2023-02-04T15:31:43.980Z,103320.66
2023-02-04T15:34:12.085Z,103313.28
2023-02-04T15:36:41.564Z,103324.25
2023-02-04T15:39:09.412Z,103324.38
2023-02-04T15:41:37.424Z,103326.13
2023-02-04T15:44:06.104Z,103334.28
2023-02-04T15:46:34.826Z,103332.59
2023-02-04T15:49:03.580Z,103330.13
2023-02-04T15:51:31.714Z,103333.59
2023-02-04T15:54:01.290Z,103341.78
2023-02-04T15:56:29.311Z,103346.31
2023-02-04T15:58:57.268Z,103342.69
2023-02-04T16:01:25.331Z,103340.94
2023-02-04T16:03:56.431Z,103334.75
2023-02-04T16:06:24.458Z,103351.91
2023-02-04T16:08:52.525Z,103343.00
2023-02-04T16:11:21.859Z,103344.00
2023-02-04T16:13:50.957Z,103338.56
2023-02-04T16:16:19.537Z,103337.75
2023-02-04T16:18:47.442Z,103332.47
2023-02-04T16:21:15.251Z,103333.38
2023-02-04T16:23:43.620Z,103332.56
2023-02-04T16:26:12.021Z,103322.78
2023-02-04T16:28:41.376Z,103323.72
2023-02-04T16:31:10.131Z,103327.34
2023-02-04T16:33:38.331Z,103318.44
2023-02-04T16:36:11.702Z,103320.34
2023-02-04T16:38:40.211Z,103306.06
2023-02-04T16:41:08.174Z,103304.31
2023-02-04T16:43:36.175Z,103300.78
2023-02-04T16:46:05.924Z,103304.38
2023-02-04T16:48:34.060Z,103297.22
2023-02-04T16:51:01.960Z,103298.13
2023-02-04T16:53:29.937Z,103295.47
2023-02-04T16:55:57.888Z,103299.16
2023-02-04T16:58:26.244Z,103313.41
2023-02-04T17:00:54.659Z,103310.66
2023-02-04T17:03:24.034Z,103305.34
2023-02-04T17:05:52.010Z,103308.94
2023-02-04T17:08:20.172Z,103308.94
2023-02-04T17:11:05.428Z,103301.78
2023-02-04T17:13:33.696Z,103309.72
2023-02-04T17:16:02.164Z,103302.78
2023-02-04T17:18:32.877Z,103300.00
2023-02-04T17:21:01.372Z,103301.72
2023-02-04T17:23:29.921Z,103312.50
2023-02-04T17:25:57.974Z,103306.22
2023-02-04T17:28:26.238Z,103301.75
2023-02-04T17:30:54.287Z,103300.88
2023-02-04T17:33:22.323Z,103292.88
2023-02-04T17:35:51.801Z,103288.47
2023-02-04T17:38:19.879Z,103286.63
2023-02-04T17:40:47.831Z,103277.59
2023-02-04T17:43:15.664Z,103283.09
2023-02-04T17:45:43.696Z,103291.97
2023-02-04T17:48:11.687Z,103299.22
2023-02-04T17:50:40.233Z,103301.09
2023-02-04T17:53:11.444Z,103307.31
2023-02-04T17:55:40.317Z,103303.81
2023-02-04T17:58:16.366Z,103313.63
2023-02-04T18:00:46.565Z,103311.88
2023-02-04T18:03:16.173Z,103316.31
2023-02-04T18:05:48.169Z,103320.81
2023-02-04T18:08:21.029Z,103325.38
2023-02-04T18:10:51.148Z,103319.00
2023-02-04T18:13:21.404Z,103326.19
2023-02-04T18:15:52.083Z,103319.09
2023-02-04T18:18:23.296Z,103326.13
2023-02-04T18:20:59.356Z,103320.72
2023-02-04T18:23:29.800Z,103321.75
2023-02-04T18:26:06.231Z,103321.69
2023-02-04T18:28:35.302Z,103322.63
2023-02-04T18:31:04.716Z,103322.72
2023-02-04T18:33:33.785Z,103328.91
2023-02-04T18:36:02.809Z,103325.34
2023-02-04T18:38:39.224Z,103323.56
2023-02-04T18:41:27.624Z,103325.34
2023-02-04T18:44:02.536Z,103315.53
2023-02-04T18:46:33.883Z,103329.91
2023-02-04T18:49:24.021Z,103329.03
2023-02-04T18:51:52.615Z,103322.66
2023-02-04T18:54:40.317Z,103326.34
2023-02-04T18:57:30.093Z,103328.16
2023-02-04T19:00:27.905Z,103326.38
2023-02-04T19:02:58.747Z,103318.31
2023-02-04T19:05:31.486Z,103320.16
2023-02-04T19:08:24.524Z,103312.97
2023-02-04T19:10:55.590Z,103307.63
2023-02-04T19:13:27.464Z,103304.94
2023-02-04T19:16:02.369Z,103297.81
2023-02-04T19:18:37.524Z,103302.28
2023-02-04T19:21:25.916Z,103305.03
2023-02-04T19:23:59.975Z,103305.91
2023-02-04T19:26:35.292Z,103306.81
2023-02-04T19:29:40.338Z,103319.38
2023-02-04T19:32:27.520Z,103332.75
2023-02-04T19:34:58.712Z,103329.25
2023-02-04T19:37:28.460Z,103325.63
2023-02-04T19:39:57.171Z,103329.25
2023-02-04T19:42:36.644Z,103340.00
2023-02-04T19:45:19.267Z,103348.06
2023-02-04T19:47:47.183Z,103343.56
2023-02-04T19:50:23.801Z,103342.69
2023-02-04T19:52:55.684Z,103337.31
2023-02-04T19:55:32.988Z,103348.09
2023-02-04T19:58:14.422Z,103357.03
2023-02-04T20:01:01.040Z,103363.38
2023-02-04T20:03:35.891Z,103362.41
2023-02-04T20:06:34.610Z,103362.50
2023-02-04T20:09:05.335Z,103358.91
2023-02-04T20:11:52.126Z,103349.94
2023-02-04T20:14:37.876Z,103349.94
2023-02-04T20:17:27.433Z,103357.97
2023-02-04T20:19:56.148Z,103360.66
2023-02-04T20:22:45.652Z,103356.22
2023-02-04T20:25:40.005Z,103355.28
2023-02-04T20:28:39.945Z,103353.47
2023-02-04T20:31:28.532Z,103354.38
2023-02-04T20:33:59.548Z,103348.16
2023-02-04T20:36:36.222Z,103344.59
2023-02-04T20:39:33.363Z,103345.47
2023-02-04T20:42:28.824Z,103339.19
2023-02-04T20:45:00.682Z,103335.66
2023-02-04T20:47:35.729Z,103328.50
2023-02-04T20:50:23.752Z,103321.38
2023-02-04T20:53:06.775Z,103315.13
2023-02-04T20:55:36.156Z,103323.19
2023-02-04T20:58:16.261Z,103324.03
2023-02-04T21:00:46.102Z,103332.13
2023-02-04T21:03:25.059Z,103326.78
2023-02-04T21:05:54.489Z,103319.66
2023-02-04T21:08:33.956Z,103325.03
2023-02-04T21:11:02.554Z,103317.91
2023-02-04T21:13:30.498Z,103325.06
2023-02-04T21:15:59.008Z,103329.50
2023-02-04T21:18:29.482Z,103331.31
2023-02-04T21:20:57.718Z,103342.94
2023-02-04T21:23:25.632Z,103348.34
2023-02-04T21:25:53.718Z,103350.13
2023-02-04T21:28:21.664Z,103352.78
2023-02-04T21:30:50.014Z,103351.84
2023-02-04T21:33:18.823Z,103350.97
2023-02-04T21:35:48.222Z,103262.50
2023-02-04T21:38:16.156Z,103162.28
2023-02-04T21:40:44.680Z,103169.44
2023-02-04T21:43:12.857Z,103156.91
2023-02-04T21:45:40.877Z,103175.66
2023-02-04T21:48:09.077Z,103187.25
2023-02-04T21:50:38.469Z,103190.81
2023-02-04T21:53:08.729Z,103200.63
2023-02-04T21:55:37.391Z,103198.09
2023-02-04T21:58:05.842Z,103206.13
2023-02-04T22:00:34.076Z,103196.28
2023-02-04T22:03:02.400Z,103187.28
2023-02-04T22:05:30.738Z,103191.75
2023-02-04T22:07:59.942Z,103184.63
2023-02-04T22:10:29.519Z,103184.66
2023-02-04T22:12:57.656Z,103193.59
2023-02-04T22:15:25.706Z,103181.09
2023-02-04T22:17:54.765Z,103182.00
2023-02-04T22:20:23.983Z,103188.25
2023-02-04T22:22:52.435Z,103183.78
2023-02-04T22:25:21.872Z,103187.34
2023-02-04T22:27:51.603Z,103200.72
2023-02-04T22:30:20.316Z,103190.94
2023-02-04T22:32:48.466Z,103182.00
2023-02-04T22:35:16.983Z,103192.69
2023-02-04T22:37:45.029Z,103200.75
2023-02-04T22:40:14.074Z,103210.59
2023-02-04T22:42:42.095Z,103224.91
2023-02-04T22:45:11.649Z,103232.06
2023-02-04T22:47:40.003Z,103232.06
2023-02-04T22:50:08.892Z,103241.00
2023-02-04T22:52:43.759Z,103244.53
2023-02-04T22:55:11.946Z,103252.59
2023-02-04T22:57:39.936Z,103265.09
2023-02-04T23:00:12.064Z,103273.16
2023-02-04T23:02:40.025Z,103273.22
2023-02-04T23:05:08.271Z,103296.44
2023-02-04T23:07:36.457Z,103366.19
2023-02-04T23:10:04.494Z,103371.56
2023-02-04T23:12:32.396Z,103377.84
2023-02-04T23:15:00.414Z,103378.72
2023-02-04T23:17:29.788Z,103381.41
2023-02-04T23:19:57.720Z,103385.00
2023-02-04T23:22:25.850Z,103378.69
2023-02-04T23:24:54.184Z,103374.25
2023-02-04T23:27:22.257Z,103384.06
2023-02-04T23:29:50.230Z,103385.88
2023-02-04T23:32:18.103Z,103396.59
2023-02-04T23:34:47.448Z,103387.69
2023-02-04T23:37:15.550Z,103388.56
2023-02-04T23:39:43.400Z,103397.50
2023-02-04T23:42:18.078Z,103410.91
2023-02-04T23:44:46.063Z,103410.91
2023-02-04T23:47:14.053Z,103396.63
2023-02-04T23:49:42.221Z,103396.59
2023-02-04T23:52:11.552Z,103394.78
2023-02-04T23:54:40.020Z,103395.69
2023-02-04T23:57:07.926Z,103396.59
2023-02-04T23:59:36.304Z,103395.69
